createdAt,value
2018-08-18T00:00:45.651Z,71.35
2018-08-18T00:03:48.893Z,71.97
2018-08-18T00:06:52.104Z,71.60
2018-08-18T00:09:55.285Z,71.56
2018-08-18T00:12:58.573Z,71.88
2018-08-18T00:16:01.840Z,71.12
2018-08-18T00:19:05.098Z,71.80
2018-08-18T00:22:08.338Z,71.96
2018-08-18T00:25:11.558Z,71.88
2018-08-18T00:28:21.530Z,71.76
2018-08-18T00:31:24.781Z,71.84
2018-08-18T00:34:28.024Z,71.88
2018-08-18T00:37:31.230Z,70.52
2018-08-18T00:40:34.458Z,71.57
2018-08-18T00:43:37.625Z,72.39
2018-08-18T00:46:40.803Z,71.85
2018-08-18T00:49:44.985Z,72.09
2018-08-18T00:52:48.214Z,72.51
2018-08-18T00:55:51.367Z,71.91
2018-08-18T00:58:55.608Z,72.31
2018-08-18T01:01:58.831Z,72.30
2018-08-18T01:05:02.467Z,71.41
2018-08-18T01:08:06.480Z,71.43
2018-08-18T01:11:09.772Z,70.74
2018-08-18T01:14:18.681Z,72.00
2018-08-18T01:17:22.495Z,72.37
2018-08-18T01:20:25.690Z,71.90
2018-08-18T01:23:29.348Z,72.59
2018-08-18T01:26:32.567Z,72.48
2018-08-18T01:29:35.831Z,72.87
2018-08-18T01:32:39.050Z,72.64
2018-08-18T01:35:42.296Z,71.89
2018-08-18T01:38:45.460Z,72.49
2018-08-18T01:41:49.748Z,72.89
2018-08-18T01:44:54.436Z,72.82
2018-08-18T01:47:57.580Z,72.63
2018-08-18T01:51:13.135Z,73.10
2018-08-18T01:54:16.412Z,73.51
2018-08-18T01:57:20.903Z,72.79
2018-08-18T02:00:26.403Z,72.15
2018-08-18T02:03:29.650Z,72.41
2018-08-18T02:06:32.822Z,73.51
2018-08-18T02:09:36.026Z,72.67
2018-08-18T02:12:44.789Z,72.61
2018-08-18T02:15:47.979Z,73.19
2018-08-18T02:18:51.323Z,74.01
2018-08-18T02:21:54.538Z,73.70
2018-08-18T02:25:04.339Z,73.61
2018-08-18T02:28:12.616Z,73.62
2018-08-18T02:31:15.830Z,73.17
2018-08-18T02:34:19.089Z,73.31
2018-08-18T02:37:22.267Z,73.17
2018-08-18T02:40:25.578Z,72.73
2018-08-18T02:43:29.374Z,73.20
2018-08-18T02:46:37.100Z,73.36
2018-08-18T02:49:45.789Z,74.20
2018-08-18T02:52:49.092Z,74.03
2018-08-18T02:55:52.910Z,74.96
2018-08-18T02:59:04.973Z,74.27
2018-08-18T03:02:08.398Z,73.75
2018-08-18T03:05:11.611Z,73.67
2018-08-18T03:08:14.783Z,74.45
2018-08-18T03:11:17.984Z,73.01
2018-08-18T03:14:21.211Z,73.75
2018-08-18T03:17:24.424Z,73.38
2018-08-18T03:20:27.769Z,73.34
2018-08-18T03:23:32.003Z,73.16
2018-08-18T03:26:40.800Z,73.99
2018-08-18T03:29:50.016Z,72.29
2018-08-18T03:32:53.186Z,73.10
2018-08-18T03:35:56.347Z,73.25
2018-08-18T03:38:59.646Z,73.34
2018-08-18T03:42:03.897Z,74.23
2018-08-18T03:45:07.370Z,74.40
2018-08-18T03:48:10.686Z,74.16
2018-08-18T03:51:14.060Z,74.24
2018-08-18T03:54:17.464Z,74.17
2018-08-18T03:57:20.726Z,74.13
2018-08-18T04:00:23.945Z,73.23
2018-08-18T04:03:27.116Z,73.54
2018-08-18T04:06:30.438Z,73.79
2018-08-18T04:09:34.737Z,73.37
2018-08-18T04:12:37.893Z,74.29
2018-08-18T04:15:41.066Z,73.41
2018-08-18T04:18:46.008Z,74.67
2018-08-18T04:21:51.300Z,74.69
2018-08-18T04:24:55.988Z,74.07
2018-08-18T04:27:59.130Z,74.30
2018-08-18T04:31:02.314Z,71.87
2018-08-18T04:34:06.596Z,73.82
2018-08-18T04:37:09.724Z,74.15
2018-08-18T04:40:12.972Z,73.33
2018-08-18T04:43:16.165Z,74.02
2018-08-18T04:46:19.421Z,73.59
2018-08-18T04:49:22.534Z,73.43
2018-08-18T04:52:25.732Z,73.77
2018-08-18T04:55:28.886Z,74.86
2018-08-18T04:58:32.104Z,74.78
2018-08-18T05:01:35.390Z,74.70
2018-08-18T05:04:38.546Z,75.03
2018-08-18T05:07:49.958Z,74.96
2018-08-18T05:10:53.115Z,75.10
2018-08-18T05:13:56.740Z,74.50
2018-08-18T05:16:59.897Z,75.02
2018-08-18T05:20:13.801Z,74.38
2018-08-18T05:23:26.758Z,74.74
2018-08-18T05:26:29.905Z,75.61
2018-08-18T05:29:33.441Z,75.42
2018-08-18T05:32:37.483Z,75.87
2018-08-18T05:35:42.704Z,76.15
2018-08-18T05:38:45.890Z,76.02
2018-08-18T05:41:49.073Z,76.50
2018-08-18T05:44:52.315Z,76.42
2018-08-18T05:47:55.517Z,76.45
2018-08-18T05:50:58.841Z,76.83
2018-08-18T05:54:02.022Z,76.58
2018-08-18T05:57:05.196Z,76.58
2018-08-18T06:00:14.320Z,77.17
2018-08-18T06:03:19.743Z,77.01
2018-08-18T06:06:22.965Z,77.49
2018-08-18T06:09:26.200Z,77.78
2018-08-18T06:12:29.937Z,77.17
2018-08-18T06:15:33.757Z,77.24
2018-08-18T06:18:38.388Z,77.60
2018-08-18T06:21:41.748Z,77.53
2018-08-18T06:24:44.996Z,77.64
2018-08-18T06:27:49.360Z,78.26
2018-08-18T06:30:53.350Z,78.35
2018-08-18T06:33:57.444Z,78.33
2018-08-18T06:37:01.595Z,78.42
2018-08-18T06:40:05.702Z,78.50
2018-08-18T06:43:09.649Z,79.49
2018-08-18T06:46:12.884Z,79.31
2018-08-18T06:49:15.947Z,79.51
2018-08-18T06:52:19.613Z,79.51
2018-08-18T06:55:22.651Z,79.22
2018-08-18T06:58:25.797Z,76.61
2018-08-18T07:01:35.730Z,76.55
2018-08-18T07:04:38.810Z,76.68
2018-08-18T07:07:42.633Z,77.74
2018-08-18T07:10:45.663Z,75.78
2018-08-18T07:13:49.214Z,76.47
2018-08-18T07:16:52.310Z,74.84
2018-08-18T07:19:55.343Z,74.16
2018-08-18T07:22:58.566Z,72.74
2018-08-18T07:26:02.318Z,70.78
2018-08-18T07:29:05.670Z,68.80
2018-08-18T07:32:08.641Z,69.00
2018-08-18T07:35:11.758Z,69.21
2018-08-18T07:38:14.900Z,66.17
2018-08-18T07:41:18.914Z,65.00
2018-08-18T07:44:22.090Z,67.13
2018-08-18T07:47:29.686Z,64.59
2018-08-18T07:50:32.775Z,62.88
2018-08-18T07:53:35.905Z,62.47
2018-08-18T07:56:39.006Z,62.88
2018-08-18T07:59:42.226Z,62.85
2018-08-18T08:03:17.333Z,63.09
2018-08-18T08:06:20.541Z,61.44
2018-08-18T08:09:23.565Z,61.50
2018-08-18T08:12:26.825Z,62.99
2018-08-18T08:15:29.991Z,61.95
2018-08-18T08:18:33.155Z,61.77
2018-08-18T08:21:36.355Z,60.42
2018-08-18T08:24:39.541Z,61.00
2018-08-18T08:27:46.418Z,62.84
2018-08-18T08:30:49.589Z,60.81
2018-08-18T08:33:52.754Z,61.16
2018-08-18T08:36:55.949Z,60.63
2018-08-18T08:39:59.487Z,60.92
2018-08-18T08:43:02.789Z,61.57
2018-08-18T08:46:06.033Z,61.71
2018-08-18T08:49:09.330Z,59.58
2018-08-18T08:52:12.563Z,60.04
2018-08-18T08:55:17.272Z,58.09
2018-08-18T08:58:20.395Z,58.20
2018-08-18T09:01:23.745Z,58.11
2018-08-18T09:04:26.902Z,57.55
2018-08-18T09:07:33.022Z,58.82
2018-08-18T09:10:36.108Z,58.94
2018-08-18T09:13:57.861Z,59.69
2018-08-18T09:17:01.056Z,58.30
2018-08-18T09:20:06.295Z,58.77
2018-08-18T09:23:09.436Z,56.10
2018-08-18T09:26:12.588Z,56.24
2018-08-18T09:29:15.619Z,57.85
2018-08-18T09:32:18.649Z,54.66
2018-08-18T09:35:21.752Z,53.38
2018-08-18T09:38:24.826Z,52.55
2018-08-18T09:41:28.084Z,52.38
2018-08-18T09:44:32.838Z,51.74
2018-08-18T09:47:35.951Z,56.47
2018-08-18T09:50:39.013Z,52.72
2018-08-18T09:53:42.129Z,52.34
2018-08-18T09:56:45.251Z,50.13
2018-08-18T09:59:48.334Z,50.72
2018-08-18T10:02:51.620Z,49.63
2018-08-18T10:05:54.711Z,51.21
2018-08-18T10:08:58.302Z,51.80
2018-08-18T10:12:01.466Z,49.42
2018-08-18T10:15:04.669Z,49.99
2018-08-18T10:18:07.808Z,50.30
2018-08-18T10:21:10.787Z,50.66
2018-08-18T10:24:13.915Z,51.09
2018-08-18T10:27:18.228Z,49.35
2018-08-18T10:30:21.347Z,51.06
2018-08-18T10:33:24.515Z,50.58
2018-08-18T10:36:27.628Z,51.92
2018-08-18T10:39:30.857Z,51.21
2018-08-18T10:42:33.906Z,49.06
2018-08-18T10:45:37.001Z,51.21
2018-08-18T10:48:40.073Z,49.04
2018-08-18T10:52:00.295Z,48.49
2018-08-18T10:55:05.619Z,47.33
2018-08-18T10:58:09.636Z,48.57
2018-08-18T11:01:12.751Z,48.13
2018-08-18T11:04:15.825Z,48.27
2018-08-18T11:07:18.886Z,47.20
2018-08-18T11:10:25.129Z,46.93
2018-08-18T11:13:28.199Z,47.48
2018-08-18T11:16:31.331Z,47.81
2018-08-18T11:19:34.425Z,45.77
2018-08-18T11:22:57.974Z,47.13
2018-08-18T11:26:01.055Z,48.20
2018-08-18T11:29:19.318Z,45.81
2018-08-18T11:32:22.414Z,47.08
2018-08-18T11:35:25.708Z,46.66
2018-08-18T11:38:28.815Z,46.81
2018-08-18T11:41:32.009Z,44.90
2018-08-18T11:44:35.052Z,43.45
2018-08-18T11:47:40.117Z,45.52
2018-08-18T11:50:50.948Z,47.07
2018-08-18T11:54:00.215Z,44.28
2018-08-18T11:57:03.366Z,45.35
2018-08-18T12:00:06.758Z,44.89
2018-08-18T12:03:11.182Z,44.43
2018-08-18T12:06:14.232Z,42.55
2018-08-18T12:09:17.507Z,43.37
2018-08-18T12:12:20.775Z,42.49
2018-08-18T12:15:23.949Z,43.02
2018-08-18T12:18:29.382Z,42.79
2018-08-18T12:21:43.870Z,42.19
2018-08-18T12:24:51.735Z,41.54
2018-08-18T12:27:54.824Z,43.61
2018-08-18T12:30:58.550Z,41.82
2018-08-18T12:34:02.391Z,41.61
2018-08-18T12:37:06.850Z,43.96
2018-08-18T12:40:09.934Z,43.19
2018-08-18T12:43:14.402Z,42.16
2018-08-18T12:46:18.858Z,40.23
2018-08-18T12:49:21.925Z,40.07
2018-08-18T12:52:25.149Z,41.84
2018-08-18T12:55:28.247Z,39.94
2018-08-18T12:58:31.806Z,40.31
2018-08-18T13:01:43.237Z,42.10
2018-08-18T13:04:53.106Z,41.70
2018-08-18T13:07:56.190Z,41.59
2018-08-18T13:10:59.290Z,43.03
2018-08-18T13:14:04.083Z,40.02
2018-08-18T13:17:07.187Z,39.44
2018-08-18T13:20:10.430Z,42.89
2018-08-18T13:23:13.534Z,39.27
2018-08-18T13:26:16.607Z,40.34
2018-08-18T13:29:19.672Z,39.53
2018-08-18T13:32:23.957Z,40.89
2018-08-18T13:35:27.098Z,39.99
2018-08-18T13:38:37.379Z,40.02
2018-08-18T13:41:41.116Z,38.12
2018-08-18T13:44:44.210Z,38.47
2018-08-18T13:47:47.329Z,37.14
2018-08-18T13:50:50.482Z,36.74
2018-08-18T13:53:56.502Z,37.21
2018-08-18T13:56:59.589Z,38.94
2018-08-18T14:00:02.832Z,37.69
2018-08-18T14:03:29.015Z,37.89
2018-08-18T14:06:39.873Z,39.87
2018-08-18T14:09:48.861Z,38.37
2018-08-18T14:12:52.826Z,39.51
2018-08-18T14:15:56.985Z,40.05
2018-08-18T14:19:00.379Z,36.39
2018-08-18T14:22:07.862Z,38.96
2018-08-18T14:25:10.901Z,38.02
2018-08-18T14:28:13.988Z,37.65
2018-08-18T14:31:17.165Z,39.28
2018-08-18T14:34:20.498Z,38.67
2018-08-18T14:37:23.379Z,37.79
2018-08-18T14:40:28.445Z,38.49
2018-08-18T14:43:37.236Z,37.86
2018-08-18T14:46:41.899Z,38.27
2018-08-18T14:49:46.891Z,40.47
2018-08-18T14:53:10.347Z,40.52
2018-08-18T14:56:13.472Z,40.88
2018-08-18T14:59:17.047Z,39.44
2018-08-18T15:02:20.478Z,42.51
2018-08-18T15:05:24.186Z,40.89
2018-08-18T15:08:27.562Z,42.54
2018-08-18T15:11:31.161Z,41.79
2018-08-18T15:14:35.719Z,41.25
2018-08-18T15:17:39.832Z,40.88
2018-08-18T15:20:44.194Z,41.67
2018-08-18T15:23:47.947Z,42.14
2018-08-18T15:26:51.846Z,43.30
2018-08-18T15:29:55.324Z,41.93
2018-08-18T15:32:59.189Z,41.50
2018-08-18T15:36:02.630Z,41.67
2018-08-18T15:39:08.093Z,41.12
2018-08-18T15:42:11.527Z,42.00
2018-08-18T15:45:15.337Z,41.51
2018-08-18T15:48:18.571Z,42.39
2018-08-18T15:51:22.357Z,42.75
2018-08-18T15:54:26.646Z,44.57
2018-08-18T15:57:30.079Z,43.86
2018-08-18T16:00:35.694Z,43.38
2018-08-18T16:03:40.842Z,43.44
2018-08-18T16:06:44.222Z,43.75
2018-08-18T16:09:47.867Z,44.30
2018-08-18T16:12:53.131Z,42.68
2018-08-18T16:15:56.593Z,45.16
2018-08-18T16:19:05.813Z,44.03
2018-08-18T16:22:09.682Z,43.77
2018-08-18T16:25:31.510Z,44.69
2018-08-18T16:28:36.361Z,43.65
2018-08-18T16:31:40.416Z,43.64
2018-08-18T16:34:45.747Z,44.08
2018-08-18T16:37:49.012Z,42.91
2018-08-18T16:40:53.352Z,41.89
2018-08-18T16:43:56.767Z,41.24
2018-08-18T16:47:03.211Z,41.82
2018-08-18T16:50:07.281Z,42.85
2018-08-18T16:53:12.001Z,41.85
2018-08-18T16:56:25.896Z,41.54
2018-08-18T16:59:29.774Z,42.46
2018-08-18T17:02:35.643Z,41.68
2018-08-18T17:05:40.425Z,43.66
2018-08-18T17:08:43.526Z,42.81
2018-08-18T17:12:09.575Z,41.93
2018-08-18T17:15:12.980Z,44.68
2018-08-18T17:18:17.311Z,43.13
2018-08-18T17:21:21.891Z,42.29
2018-08-18T17:24:26.154Z,45.38
2018-08-18T17:27:30.639Z,42.92
2018-08-18T17:30:35.090Z,43.87
2018-08-18T17:33:38.729Z,43.39
2018-08-18T17:36:42.459Z,43.69
2018-08-18T17:39:46.268Z,47.04
2018-08-18T17:42:49.504Z,46.17
2018-08-18T17:45:55.930Z,46.75
2018-08-18T17:49:00.313Z,47.37
2018-08-18T17:52:07.245Z,48.39
2018-08-18T17:55:18.549Z,51.08
2018-08-18T17:58:22.020Z,50.66
2018-08-18T18:01:25.778Z,53.39
2018-08-18T18:04:30.339Z,51.68
2018-08-18T18:07:35.241Z,53.20
2018-08-18T18:10:38.884Z,53.87
2018-08-18T18:13:42.241Z,54.89
2018-08-18T18:16:45.671Z,55.70
2018-08-18T18:19:49.486Z,55.70
2018-08-18T18:22:53.218Z,56.17
2018-08-18T18:25:58.978Z,56.31
2018-08-18T18:29:02.492Z,56.66
2018-08-18T18:32:06.464Z,56.78
2018-08-18T18:35:09.679Z,57.40
2018-08-18T18:38:12.844Z,57.26
2018-08-18T18:41:16.029Z,57.36
2018-08-18T18:44:19.411Z,56.20
2018-08-18T18:47:22.894Z,57.69
2018-08-18T18:50:26.414Z,57.90
2018-08-18T18:53:51.993Z,56.96
2018-08-18T18:56:55.174Z,57.76
2018-08-18T18:59:59.616Z,57.81
2018-08-18T19:03:04.081Z,58.09
2018-08-18T19:06:14.204Z,57.47
2018-08-18T19:09:18.074Z,57.81
2018-08-18T19:12:21.325Z,59.50
2018-08-18T19:15:26.073Z,59.70
2018-08-18T19:18:30.477Z,59.68
2018-08-18T19:21:34.348Z,59.86
2018-08-18T19:24:37.726Z,59.91
2018-08-18T19:27:41.145Z,60.50
2018-08-18T19:30:44.305Z,60.15
2018-08-18T19:33:47.757Z,60.05
2018-08-18T19:37:06.521Z,61.04
2018-08-18T19:40:10.027Z,61.19
2018-08-18T19:43:20.654Z,61.05
2018-08-18T19:46:23.841Z,60.85
2018-08-18T19:49:40.620Z,61.84
2018-08-18T19:52:43.739Z,62.34
2018-08-18T19:55:46.818Z,62.11
2018-08-18T19:58:50.165Z,63.11
2018-08-18T20:01:53.763Z,62.72
2018-08-18T20:04:57.067Z,62.98
2018-08-18T20:08:00.228Z,62.81
2018-08-18T20:11:03.425Z,64.02
2018-08-18T20:14:06.629Z,63.56
2018-08-18T20:17:09.983Z,63.94
2018-08-18T20:20:17.422Z,64.68
2018-08-18T20:23:21.274Z,64.32
2018-08-18T20:26:24.454Z,64.49
2018-08-18T20:29:27.820Z,64.69
2018-08-18T20:32:31.222Z,64.68
2018-08-18T20:35:34.706Z,64.93
2018-08-18T20:38:43.079Z,65.09
2018-08-18T20:41:46.093Z,65.38
2018-08-18T20:44:51.052Z,65.31
2018-08-18T20:47:54.534Z,65.87
2018-08-18T20:50:58.201Z,65.82
2018-08-18T20:54:02.112Z,65.70
2018-08-18T20:57:06.896Z,65.34
2018-08-18T21:00:11.619Z,66.04
2018-08-18T21:03:15.295Z,66.30
2018-08-18T21:06:19.664Z,66.58
2018-08-18T21:09:30.676Z,66.32
2018-08-18T21:12:39.722Z,66.06
2018-08-18T21:15:44.156Z,65.94
2018-08-18T21:18:47.573Z,66.11
2018-08-18T21:21:52.326Z,66.00
2018-08-18T21:24:56.663Z,66.57
2018-08-18T21:28:01.475Z,66.57
2018-08-18T21:31:05.165Z,66.53
2018-08-18T21:34:09.062Z,66.41
2018-08-18T21:37:13.842Z,66.14
2018-08-18T21:40:17.729Z,66.62
2018-08-18T21:43:33.773Z,66.67
2018-08-18T21:46:37.825Z,66.41
2018-08-18T21:49:45.258Z,66.47
2018-08-18T21:52:48.549Z,66.35
2018-08-18T21:55:51.930Z,66.51
2018-08-18T21:58:55.789Z,66.78
2018-08-18T22:02:00.850Z,66.44
2018-08-18T22:05:04.677Z,66.54
2018-08-18T22:08:09.831Z,66.63
2018-08-18T22:11:18.086Z,67.20
2018-08-18T22:14:21.412Z,66.22
2018-08-18T22:17:24.736Z,66.49
2018-08-18T22:20:28.105Z,67.02
2018-08-18T22:23:31.425Z,67.19
2018-08-18T22:26:38.080Z,66.43
2018-08-18T22:29:41.425Z,66.80
2018-08-18T22:32:45.384Z,67.15
2018-08-18T22:35:49.753Z,67.90
2018-08-18T22:38:53.604Z,67.59
2018-08-18T22:41:57.760Z,67.55
2018-08-18T22:45:18.105Z,67.46
2018-08-18T22:48:21.353Z,67.83
2018-08-18T22:51:24.721Z,67.39
2018-08-18T22:54:28.015Z,67.96
2018-08-18T22:57:31.300Z,67.76
2018-08-18T23:00:40.222Z,68.23
2018-08-18T23:03:43.507Z,68.19
2018-08-18T23:06:46.881Z,68.33
2018-08-18T23:09:50.124Z,68.59
2018-08-18T23:12:53.345Z,68.61
2018-08-18T23:15:56.627Z,68.84
2018-08-18T23:18:59.918Z,68.35
2018-08-18T23:22:03.273Z,68.55
2018-08-18T23:25:06.641Z,68.74
2018-08-18T23:28:09.884Z,68.93
2018-08-18T23:31:13.099Z,69.56
2018-08-18T23:34:16.446Z,68.40
2018-08-18T23:37:20.139Z,68.52
2018-08-18T23:40:23.540Z,68.32
2018-08-18T23:43:26.854Z,68.56
2018-08-18T23:46:30.105Z,67.99
2018-08-18T23:49:33.380Z,67.86
2018-08-18T23:52:53.807Z,67.93
2018-08-18T23:55:58.601Z,68.36
2018-08-18T23:59:01.805Z,68.84
